sensor_id;sensor_type;location;lat;lon;timestamp;pressure;altitude;pressure_sealevel;temperature;humidity
16525;BME280;8375;33.594;-117.718;2023-07-31T00:00:18;99850.63;;;30.41;48.15
16525;BME280;8375;33.594;-117.718;2023-07-31T00:02:46;99848.59;;;30.10;48.15
16525;BME280;8375;33.594;-117.718;2023-07-31T00:05:17;99847.31;;;29.58;48.33
16525;BME280;8375;33.594;-117.718;2023-07-31T00:07:45;99850.16;;;29.46;48.48
16525;BME280;8375;33.594;-117.718;2023-07-31T00:10:14;99847.88;;;29.60;48.70
16525;BME280;8375;33.594;-117.718;2023-07-31T00:12:44;99843.53;;;29.54;49.35
16525;BME280;8375;33.594;-117.718;2023-07-31T00:15:13;99845.25;;;29.38;48.94
16525;BME280;8375;33.594;-117.718;2023-07-31T00:17:42;99831.78;;;29.27;48.75
16525;BME280;8375;33.594;-117.718;2023-07-31T00:20:11;99828.91;;;29.12;49.09
16525;BME280;8375;33.594;-117.718;2023-07-31T00:22:42;99821.59;;;29.24;49.46
16525;BME280;8375;33.594;-117.718;2023-07-31T00:25:10;99820.50;;;29.48;48.68
16525;BME280;8375;33.594;-117.718;2023-07-31T00:27:39;99820.13;;;29.66;49.80
16525;BME280;8375;33.594;-117.718;2023-07-31T00:30:11;99818.00;;;29.68;49.07
16525;BME280;8375;33.594;-117.718;2023-07-31T00:32:40;99827.13;;;29.18;49.42
16525;BME280;8375;33.594;-117.718;2023-07-31T00:35:08;99822.06;;;28.94;49.99
16525;BME280;8375;33.594;-117.718;2023-07-31T00:37:37;99822.28;;;28.70;49.68
16525;BME280;8375;33.594;-117.718;2023-07-31T00:40:08;99817.44;;;28.67;50.82
16525;BME280;8375;33.594;-117.718;2023-07-31T00:42:37;99797.44;;;28.47;50.83
16525;BME280;8375;33.594;-117.718;2023-07-31T00:45:06;99800.25;;;28.40;50.54
16525;BME280;8375;33.594;-117.718;2023-07-31T00:47:35;99797.72;;;28.51;50.41
16525;BME280;8375;33.594;-117.718;2023-07-31T00:50:04;99804.19;;;28.55;50.39
16525;BME280;8375;33.594;-117.718;2023-07-31T00:52:33;99793.22;;;28.51;49.33
16525;BME280;8375;33.594;-117.718;2023-07-31T00:55:02;99790.91;;;28.60;49.58
16525;BME280;8375;33.594;-117.718;2023-07-31T00:57:32;99795.56;;;28.48;49.59
16525;BME280;8375;33.594;-117.718;2023-07-31T01:00:02;99791.97;;;28.37;50.16
16525;BME280;8375;33.594;-117.718;2023-07-31T01:02:31;99800.38;;;28.29;50.65
16525;BME280;8375;33.594;-117.718;2023-07-31T01:05:00;99794.78;;;28.30;50.46
16525;BME280;8375;33.594;-117.718;2023-07-31T01:07:36;99797.28;;;28.37;50.28
16525;BME280;8375;33.594;-117.718;2023-07-31T01:10:16;99800.59;;;28.44;50.76
16525;BME280;8375;33.594;-117.718;2023-07-31T01:12:51;99788.50;;;28.59;49.83
16525;BME280;8375;33.594;-117.718;2023-07-31T01:15:20;99790.72;;;28.67;49.55
16525;BME280;8375;33.594;-117.718;2023-07-31T01:17:49;99796.75;;;28.57;50.07
16525;BME280;8375;33.594;-117.718;2023-07-31T01:20:21;99801.28;;;28.57;49.87
16525;BME280;8375;33.594;-117.718;2023-07-31T01:25:59;99816.78;;;28.37;50.18
16525;BME280;8375;33.594;-117.718;2023-07-31T01:28:42;99805.41;;;28.08;50.60
16525;BME280;8375;33.594;-117.718;2023-07-31T01:31:14;99807.50;;;28.06;50.77
16525;BME280;8375;33.594;-117.718;2023-07-31T01:33:45;99813.00;;;27.99;51.42
16525;BME280;8375;33.594;-117.718;2023-07-31T01:36:15;99803.00;;;27.89;51.89
16525;BME280;8375;33.594;-117.718;2023-07-31T01:38:45;99807.91;;;27.98;52.49
16525;BME280;8375;33.594;-117.718;2023-07-31T01:41:17;99819.84;;;27.95;53.08
16525;BME280;8375;33.594;-117.718;2023-07-31T01:43:46;99823.28;;;27.90;53.47
16525;BME280;8375;33.594;-117.718;2023-07-31T01:46:15;99827.28;;;27.93;53.75
16525;BME280;8375;33.594;-117.718;2023-07-31T01:48:44;99835.72;;;28.02;53.76
16525;BME280;8375;33.594;-117.718;2023-07-31T01:51:12;99822.84;;;27.64;54.09
16525;BME280;8375;33.594;-117.718;2023-07-31T01:53:41;99827.78;;;27.44;54.28
16525;BME280;8375;33.594;-117.718;2023-07-31T01:56:09;99825.34;;;27.25;55.33
16525;BME280;8375;33.594;-117.718;2023-07-31T01:58:40;99825.34;;;27.25;55.80
16525;BME280;8375;33.594;-117.718;2023-07-31T02:01:09;99834.66;;;27.40;55.35
16525;BME280;8375;33.594;-117.718;2023-07-31T02:03:38;99839.16;;;27.51;54.76
16525;BME280;8375;33.594;-117.718;2023-07-31T02:06:07;99831.72;;;27.24;55.04
16525;BME280;8375;33.594;-117.718;2023-07-31T02:08:36;99838.38;;;26.98;55.44
16525;BME280;8375;33.594;-117.718;2023-07-31T02:11:05;99846.38;;;26.98;55.74
16525;BME280;8375;33.594;-117.718;2023-07-31T02:13:34;99836.16;;;27.06;55.55
16525;BME280;8375;33.594;-117.718;2023-07-31T02:16:04;99841.25;;;27.08;56.00
16525;BME280;8375;33.594;-117.718;2023-07-31T02:18:33;99839.97;;;27.11;55.69
16525;BME280;8375;33.594;-117.718;2023-07-31T02:21:02;99838.69;;;27.13;55.84
16525;BME280;8375;33.594;-117.718;2023-07-31T02:23:31;99845.63;;;27.14;55.62
16525;BME280;8375;33.594;-117.718;2023-07-31T02:26:00;99854.81;;;27.06;54.99
16525;BME280;8375;33.594;-117.718;2023-07-31T02:28:29;99850.31;;;26.95;56.04
16525;BME280;8375;33.594;-117.718;2023-07-31T02:30:58;99858.53;;;26.93;56.49
16525;BME280;8375;33.594;-117.718;2023-07-31T02:33:28;99859.34;;;26.94;55.52
16525;BME280;8375;33.594;-117.718;2023-07-31T02:35:57;99861.44;;;26.92;56.19
16525;BME280;8375;33.594;-117.718;2023-07-31T02:38:26;99860.41;;;26.93;56.89
16525;BME280;8375;33.594;-117.718;2023-07-31T02:40:56;99859.56;;;26.92;55.56
16525;BME280;8375;33.594;-117.718;2023-07-31T02:43:24;99857.06;;;26.86;55.79
16525;BME280;8375;33.594;-117.718;2023-07-31T02:45:53;99858.31;;;26.83;55.92
16525;BME280;8375;33.594;-117.718;2023-07-31T02:48:22;99868.25;;;26.76;55.75
16525;BME280;8375;33.594;-117.718;2023-07-31T02:50:53;99861.00;;;26.71;55.99
16525;BME280;8375;33.594;-117.718;2023-07-31T02:53:21;99872.78;;;26.63;56.54
16525;BME280;8375;33.594;-117.718;2023-07-31T02:55:50;99865.16;;;26.55;56.67
16525;BME280;8375;33.594;-117.718;2023-07-31T02:58:19;99874.28;;;26.47;56.85
16525;BME280;8375;33.594;-117.718;2023-07-31T03:00:47;99871.63;;;26.47;56.52
16525;BME280;8375;33.594;-117.718;2023-07-31T03:03:16;99879.16;;;26.50;57.58
16525;BME280;8375;33.594;-117.718;2023-07-31T03:05:45;99881.84;;;26.50;57.50
16525;BME280;8375;33.594;-117.718;2023-07-31T03:08:15;99887.59;;;26.47;57.48
16525;BME280;8375;33.594;-117.718;2023-07-31T03:10:44;99895.22;;;26.44;56.95
16525;BME280;8375;33.594;-117.718;2023-07-31T03:13:13;99899.72;;;26.43;57.79
16525;BME280;8375;33.594;-117.718;2023-07-31T03:15:42;99897.31;;;26.42;57.39
16525;BME280;8375;33.594;-117.718;2023-07-31T03:18:11;99905.97;;;26.37;56.89
16525;BME280;8375;33.594;-117.718;2023-07-31T03:20:43;99913.38;;;26.23;57.60
16525;BME280;8375;33.594;-117.718;2023-07-31T03:23:12;99922.19;;;25.93;58.53
16525;BME280;8375;33.594;-117.718;2023-07-31T03:25:55;99914.41;;;25.91;58.81
16525;BME280;8375;33.594;-117.718;2023-07-31T03:28:24;99924.72;;;25.88;59.14
16525;BME280;8375;33.594;-117.718;2023-07-31T03:30:53;99937.88;;;25.95;59.87
16525;BME280;8375;33.594;-117.718;2023-07-31T03:33:22;99936.13;;;25.88;59.74
16525;BME280;8375;33.594;-117.718;2023-07-31T03:35:51;99931.50;;;25.84;61.45
16525;BME280;8375;33.594;-117.718;2023-07-31T03:38:20;99942.53;;;25.69;63.65
16525;BME280;8375;33.594;-117.718;2023-07-31T03:40:50;99941.88;;;25.73;64.49
16525;BME280;8375;33.594;-117.718;2023-07-31T03:43:19;99938.31;;;25.80;65.47
16525;BME280;8375;33.594;-117.718;2023-07-31T03:45:48;99940.59;;;25.76;65.73
16525;BME280;8375;33.594;-117.718;2023-07-31T03:48:16;99939.66;;;25.70;65.94
16525;BME280;8375;33.594;-117.718;2023-07-31T03:50:45;99950.94;;;25.66;66.31
16525;BME280;8375;33.594;-117.718;2023-07-31T03:53:14;99956.22;;;25.54;67.02
16525;BME280;8375;33.594;-117.718;2023-07-31T03:55:42;99963.66;;;25.45;67.35
16525;BME280;8375;33.594;-117.718;2023-07-31T03:58:13;99970.00;;;25.25;68.63
16525;BME280;8375;33.594;-117.718;2023-07-31T04:00:42;99967.47;;;25.12;69.37
16525;BME280;8375;33.594;-117.718;2023-07-31T04:03:10;99970.94;;;24.94;69.91
16525;BME280;8375;33.594;-117.718;2023-07-31T04:05:39;99965.75;;;24.80;68.60
16525;BME280;8375;33.594;-117.718;2023-07-31T04:08:08;99958.00;;;24.79;69.35
16525;BME280;8375;33.594;-117.718;2023-07-31T04:10:36;99968.16;;;24.82;70.56
16525;BME280;8375;33.594;-117.718;2023-07-31T04:13:05;99974.50;;;24.81;71.94
16525;BME280;8375;33.594;-117.718;2023-07-31T04:15:35;99975.09;;;24.83;72.16
16525;BME280;8375;33.594;-117.718;2023-07-31T04:18:05;99983.06;;;24.83;72.29
16525;BME280;8375;33.594;-117.718;2023-07-31T04:20:34;99980.06;;;24.79;72.47
16525;BME280;8375;33.594;-117.718;2023-07-31T04:23:03;99977.41;;;24.79;72.74
16525;BME280;8375;33.594;-117.718;2023-07-31T04:25:32;99976.81;;;24.70;73.60
16525;BME280;8375;33.594;-117.718;2023-07-31T04:28:01;99969.50;;;24.66;74.21
16525;BME280;8375;33.594;-117.718;2023-07-31T04:30:30;99973.06;;;24.53;74.96
16525;BME280;8375;33.594;-117.718;2023-07-31T04:33:00;99968.88;;;24.45;75.87
16525;BME280;8375;33.594;-117.718;2023-07-31T04:35:29;99969.81;;;24.51;75.76
16525;BME280;8375;33.594;-117.718;2023-07-31T04:37:57;99971.00;;;24.55;75.68
16525;BME280;8375;33.594;-117.718;2023-07-31T04:40:26;99981.47;;;24.50;75.91
16525;BME280;8375;33.594;-117.718;2023-07-31T04:42:55;99981.88;;;24.53;75.98
16525;BME280;8375;33.594;-117.718;2023-07-31T04:45:23;99978.78;;;24.56;75.99
16525;BME280;8375;33.594;-117.718;2023-07-31T04:47:52;99973.47;;;24.56;75.64
16525;BME280;8375;33.594;-117.718;2023-07-31T04:50:22;99979.56;;;24.57;75.69
16525;BME280;8375;33.594;-117.718;2023-07-31T04:52:51;99961.00;;;24.57;76.14
16525;BME280;8375;33.594;-117.718;2023-07-31T04:55:20;99971.75;;;24.69;75.30
16525;BME280;8375;33.594;-117.718;2023-07-31T04:57:48;99975.78;;;24.71;75.58
16525;BME280;8375;33.594;-117.718;2023-07-31T05:00:17;99973.41;;;24.63;75.51
16525;BME280;8375;33.594;-117.718;2023-07-31T05:02:46;99978.97;;;24.55;76.00
16525;BME280;8375;33.594;-117.718;2023-07-31T05:05:15;99979.47;;;24.45;76.27
16525;BME280;8375;33.594;-117.718;2023-07-31T05:07:45;99975.78;;;24.46;76.77
16525;BME280;8375;33.594;-117.718;2023-07-31T05:10:14;99971.88;;;24.49;76.49
16525;BME280;8375;33.594;-117.718;2023-07-31T05:12:42;99968.63;;;24.46;76.52
16525;BME280;8375;33.594;-117.718;2023-07-31T05:15:11;99969.50;;;24.40;77.04
16525;BME280;8375;33.594;-117.718;2023-07-31T05:17:40;99970.31;;;24.41;76.40
16525;BME280;8375;33.594;-117.718;2023-07-31T05:20:09;99967.44;;;24.42;75.66
16525;BME280;8375;33.594;-117.718;2023-07-31T05:22:38;99966.47;;;24.37;75.06
16525;BME280;8375;33.594;-117.718;2023-07-31T05:25:08;99974.03;;;24.33;75.08
16525;BME280;8375;33.594;-117.718;2023-07-31T05:27:37;99967.53;;;24.29;74.96
16525;BME280;8375;33.594;-117.718;2023-07-31T05:30:07;99960.22;;;24.24;73.99
16525;BME280;8375;33.594;-117.718;2023-07-31T05:32:36;99957.84;;;24.16;74.71
16525;BME280;8375;33.594;-117.718;2023-07-31T05:35:05;99956.81;;;24.17;75.07
16525;BME280;8375;33.594;-117.718;2023-07-31T05:37:34;99972.28;;;24.20;75.25
16525;BME280;8375;33.594;-117.718;2023-07-31T05:40:03;99967.25;;;24.12;75.14
16525;BME280;8375;33.594;-117.718;2023-07-31T05:42:34;99966.84;;;24.08;74.96
16525;BME280;8375;33.594;-117.718;2023-07-31T05:45:06;99957.31;;;23.94;75.56
16525;BME280;8375;33.594;-117.718;2023-07-31T05:47:35;99969.50;;;23.63;77.32
16525;BME280;8375;33.594;-117.718;2023-07-31T05:50:04;99967.88;;;23.62;78.29
16525;BME280;8375;33.594;-117.718;2023-07-31T05:52:33;99976.84;;;23.61;78.62
16525;BME280;8375;33.594;-117.718;2023-07-31T05:55:02;99981.34;;;23.53;78.49
16525;BME280;8375;33.594;-117.718;2023-07-31T05:57:31;99980.31;;;23.54;78.29
16525;BME280;8375;33.594;-117.718;2023-07-31T06:00:01;99980.75;;;23.51;78.41
16525;BME280;8375;33.594;-117.718;2023-07-31T06:02:30;99978.50;;;23.48;78.97
16525;BME280;8375;33.594;-117.718;2023-07-31T06:05:03;99973.63;;;23.45;79.04
16525;BME280;8375;33.594;-117.718;2023-07-31T06:07:32;99973.03;;;23.36;79.85
16525;BME280;8375;33.594;-117.718;2023-07-31T06:10:01;99973.25;;;23.35;80.30
16525;BME280;8375;33.594;-117.718;2023-07-31T06:12:31;99971.81;;;23.39;80.41
16525;BME280;8375;33.594;-117.718;2023-07-31T06:15:02;99976.88;;;23.40;80.45
16525;BME280;8375;33.594;-117.718;2023-07-31T06:17:32;99982.19;;;23.40;80.35
16525;BME280;8375;33.594;-117.718;2023-07-31T06:20:01;99983.00;;;23.41;80.39
16525;BME280;8375;33.594;-117.718;2023-07-31T06:22:31;99984.22;;;23.38;80.46
16525;BME280;8375;33.594;-117.718;2023-07-31T06:25:00;99972.84;;;23.38;80.87
16525;BME280;8375;33.594;-117.718;2023-07-31T06:27:28;99980.78;;;23.38;81.50
16525;BME280;8375;33.594;-117.718;2023-07-31T06:29:57;99981.38;;;23.40;81.49
16525;BME280;8375;33.594;-117.718;2023-07-31T06:32:28;99978.94;;;23.38;82.40
16525;BME280;8375;33.594;-117.718;2023-07-31T06:34:56;99974.88;;;23.29;83.47
16525;BME280;8375;33.594;-117.718;2023-07-31T06:37:25;99983.84;;;23.21;83.42
16525;BME280;8375;33.594;-117.718;2023-07-31T06:39:54;99985.06;;;23.12;84.53
16525;BME280;8375;33.594;-117.718;2023-07-31T06:42:23;99984.69;;;23.02;85.97
16525;BME280;8375;33.594;-117.718;2023-07-31T06:44:51;99981.44;;;22.93;86.17
16525;BME280;8375;33.594;-117.718;2023-07-31T06:47:20;99986.94;;;22.91;86.74
16525;BME280;8375;33.594;-117.718;2023-07-31T06:49:50;99987.53;;;22.86;87.49
16525;BME280;8375;33.594;-117.718;2023-07-31T06:52:19;99986.31;;;22.82;88.61
16525;BME280;8375;33.594;-117.718;2023-07-31T06:55:01;99994.06;;;22.70;89.65
16525;BME280;8375;33.594;-117.718;2023-07-31T06:57:30;99986.94;;;22.51;91.95
16525;BME280;8375;33.594;-117.718;2023-07-31T06:59:59;99987.69;;;22.38;93.64
16525;BME280;8375;33.594;-117.718;2023-07-31T07:02:28;99991.97;;;22.32;94.59
16525;BME280;8375;33.594;-117.718;2023-07-31T07:04:59;99991.56;;;22.35;94.92
16525;BME280;8375;33.594;-117.718;2023-07-31T07:07:27;99983.22;;;22.38;95.34
16525;BME280;8375;33.594;-117.718;2023-07-31T07:09:56;99984.63;;;22.41;95.39
16525;BME280;8375;33.594;-117.718;2023-07-31T07:12:26;99996.66;;;22.44;95.58
16525;BME280;8375;33.594;-117.718;2023-07-31T07:14:54;99988.13;;;22.41;95.85
16525;BME280;8375;33.594;-117.718;2023-07-31T07:17:24;99985.03;;;22.38;96.47
16525;BME280;8375;33.594;-117.718;2023-07-31T07:19:53;99985.44;;;22.35;97.37
16525;BME280;8375;33.594;-117.718;2023-07-31T07:22:24;99986.25;;;22.28;98.04
16525;BME280;8375;33.594;-117.718;2023-07-31T07:24:54;99983.00;;;22.26;98.08
16525;BME280;8375;33.594;-117.718;2023-07-31T07:27:23;99985.44;;;22.28;98.08
16525;BME280;8375;33.594;-117.718;2023-07-31T07:29:52;99980.34;;;22.26;98.33
16525;BME280;8375;33.594;-117.718;2023-07-31T07:32:21;99982.59;;;22.23;98.34
16525;BME280;8375;33.594;-117.718;2023-07-31T07:34:50;99984.41;;;22.16;98.73
16525;BME280;8375;33.594;-117.718;2023-07-31T07:37:19;99993.53;;;22.13;98.96
16525;BME280;8375;33.594;-117.718;2023-07-31T07:39:49;99992.31;;;22.09;99.55
16525;BME280;8375;33.594;-117.718;2023-07-31T07:42:18;99983.97;;;22.05;99.55
16525;BME280;8375;33.594;-117.718;2023-07-31T07:44:46;99988.03;;;22.01;99.96
16525;BME280;8375;33.594;-117.718;2023-07-31T07:47:16;99984.94;;;21.97;100.00
16525;BME280;8375;33.594;-117.718;2023-07-31T07:49:45;99991.81;;;21.78;100.00
16525;BME280;8375;33.594;-117.718;2023-07-31T07:52:14;99990.19;;;21.77;100.00
16525;BME280;8375;33.594;-117.718;2023-07-31T07:54:43;99995.81;;;21.67;100.00
16525;BME280;8375;33.594;-117.718;2023-07-31T07:57:13;99992.38;;;21.67;100.00
16525;BME280;8375;33.594;-117.718;2023-07-31T07:59:42;99998.19;;;21.62;100.00
16525;BME280;8375;33.594;-117.718;2023-07-31T08:02:11;99987.63;;;21.62;100.00
16525;BME280;8375;33.594;-117.718;2023-07-31T08:04:39;99980.56;;;21.63;100.00
16525;BME280;8375;33.594;-117.718;2023-07-31T08:07:09;99980.72;;;21.61;100.00
16525;BME280;8375;33.594;-117.718;2023-07-31T08:09:38;99981.53;;;21.62;100.00
16525;BME280;8375;33.594;-117.718;2023-07-31T08:12:08;99979.09;;;21.60;100.00
16525;BME280;8375;33.594;-117.718;2023-07-31T08:14:38;99986.38;;;21.58;100.00
16525;BME280;8375;33.594;-117.718;2023-07-31T08:17:07;99977.66;;;21.58;100.00
16525;BME280;8375;33.594;-117.718;2023-07-31T08:19:35;99980.50;;;21.56;100.00
16525;BME280;8375;33.594;-117.718;2023-07-31T08:22:04;99982.50;;;21.54;100.00
16525;BME280;8375;33.594;-117.718;2023-07-31T08:24:33;99977.44;;;21.52;100.00
16525;BME280;8375;33.594;-117.718;2023-07-31T08:27:02;99983.72;;;21.51;100.00
16525;BME280;8375;33.594;-117.718;2023-07-31T08:29:31;99971.34;;;21.52;100.00
16525;BME280;8375;33.594;-117.718;2023-07-31T08:32:01;99972.34;;;21.51;100.00
16525;BME280;8375;33.594;-117.718;2023-07-31T08:34:30;99971.34;;;21.52;100.00
16525;BME280;8375;33.594;-117.718;2023-07-31T08:36:58;99975.81;;;21.51;100.00
16525;BME280;8375;33.594;-117.718;2023-07-31T08:39:27;99969.91;;;21.49;100.00
16525;BME280;8375;33.594;-117.718;2023-07-31T08:41:58;99973.56;;;21.48;100.00
16525;BME280;8375;33.594;-117.718;2023-07-31T08:44:29;99970.31;;;21.46;100.00
16525;BME280;8375;33.594;-117.718;2023-07-31T08:47:01;99972.13;;;21.46;100.00
16525;BME280;8375;33.594;-117.718;2023-07-31T08:49:31;99980.25;;;21.44;100.00
16525;BME280;8375;33.594;-117.718;2023-07-31T08:52:00;99980.25;;;21.44;100.00
16525;BME280;8375;33.594;-117.718;2023-07-31T08:54:30;99966.41;;;21.42;100.00
16525;BME280;8375;33.594;-117.718;2023-07-31T08:56:59;99956.25;;;21.39;100.00
16525;BME280;8375;33.594;-117.718;2023-07-31T08:59:30;99963.34;;;21.38;100.00
16525;BME280;8375;33.594;-117.718;2023-07-31T09:02:05;99966.53;;;21.27;100.00
16525;BME280;8375;33.594;-117.718;2023-07-31T09:04:34;99966.34;;;21.29;100.00
16525;BME280;8375;33.594;-117.718;2023-07-31T09:07:04;99962.69;;;21.30;100.00
16525;BME280;8375;33.594;-117.718;2023-07-31T09:09:33;99963.47;;;21.23;100.00
16525;BME280;8375;33.594;-117.718;2023-07-31T09:12:03;99964.22;;;21.17;100.00
16525;BME280;8375;33.594;-117.718;2023-07-31T09:14:33;99962.19;;;21.19;100.00
16525;BME280;8375;33.594;-117.718;2023-07-31T09:17:04;99960.22;;;21.21;100.00
16525;BME280;8375;33.594;-117.718;2023-07-31T09:19:34;99959.38;;;21.21;100.00
16525;BME280;8375;33.594;-117.718;2023-07-31T09:22:04;99966.25;;;21.15;100.00
16525;BME280;8375;33.594;-117.718;2023-07-31T09:24:33;99964.38;;;21.09;100.00
16525;BME280;8375;33.594;-117.718;2023-07-31T09:27:03;99956.22;;;21.04;100.00
16525;BME280;8375;33.594;-117.718;2023-07-31T09:29:31;99961.88;;;21.01;100.00
16525;BME280;8375;33.594;-117.718;2023-07-31T09:32:00;99961.47;;;20.97;100.00
16525;BME280;8375;33.594;-117.718;2023-07-31T09:34:36;99947.03;;;20.93;100.00
16525;BME280;8375;33.594;-117.718;2023-07-31T09:37:05;99947.84;;;20.93;100.00
16525;BME280;8375;33.594;-117.718;2023-07-31T09:39:45;99929.19;;;20.95;100.00
16525;BME280;8375;33.594;-117.718;2023-07-31T09:42:25;99925.69;;;20.88;100.00
16525;BME280;8375;33.594;-117.718;2023-07-31T09:44:55;99924.63;;;20.82;100.00
16525;BME280;8375;33.594;-117.718;2023-07-31T09:47:35;99918.97;;;20.85;100.00
16525;BME280;8375;33.594;-117.718;2023-07-31T09:50:08;99925.25;;;20.84;100.00
16525;BME280;8375;33.594;-117.718;2023-07-31T09:52:39;99926.06;;;20.85;100.00
16525;BME280;8375;33.594;-117.718;2023-07-31T09:55:09;99927.09;;;20.84;100.00
16525;BME280;8375;33.594;-117.718;2023-07-31T09:57:40;99927.81;;;20.77;100.00
16525;BME280;8375;33.594;-117.718;2023-07-31T10:00:10;99930.00;;;20.74;100.00
16525;BME280;8375;33.594;-117.718;2023-07-31T10:02:39;99931.00;;;20.73;100.00
16525;BME280;8375;33.594;-117.718;2023-07-31T10:05:13;99929.78;;;20.69;100.00
16525;BME280;8375;33.594;-117.718;2023-07-31T10:07:43;99922.88;;;20.67;100.00
16525;BME280;8375;33.594;-117.718;2023-07-31T10:10:15;99922.44;;;20.64;100.00
16525;BME280;8375;33.594;-117.718;2023-07-31T10:12:44;99918.56;;;20.60;100.00
16525;BME280;8375;33.594;-117.718;2023-07-31T10:15:15;99912.47;;;20.59;100.00
16525;BME280;8375;33.594;-117.718;2023-07-31T10:17:44;99905.75;;;20.57;100.00
16525;BME280;8375;33.594;-117.718;2023-07-31T10:20:17;99901.66;;;20.54;100.00
16525;BME280;8375;33.594;-117.718;2023-07-31T10:22:46;99898.84;;;20.56;100.00
16525;BME280;8375;33.594;-117.718;2023-07-31T10:25:16;99896.59;;;20.52;100.00
16525;BME280;8375;33.594;-117.718;2023-07-31T10:27:47;99896.59;;;20.52;100.00
16525;BME280;8375;33.594;-117.718;2023-07-31T10:30:18;99899.25;;;20.52;100.00
16525;BME280;8375;33.594;-117.718;2023-07-31T10:32:49;99905.13;;;20.55;100.00
16525;BME280;8375;33.594;-117.718;2023-07-31T10:35:21;99900.41;;;20.50;100.00
16525;BME280;8375;33.594;-117.718;2023-07-31T10:37:50;99905.28;;;20.46;100.00
16525;BME280;8375;33.594;-117.718;2023-07-31T10:40:25;99907.09;;;20.46;100.00
16525;BME280;8375;33.594;-117.718;2023-07-31T10:42:54;99901.81;;;20.46;100.00
16525;BME280;8375;33.594;-117.718;2023-07-31T10:45:31;99909.09;;;20.44;100.00
16525;BME280;8375;33.594;-117.718;2023-07-31T10:48:04;99915.19;;;20.44;100.00
16525;BME280;8375;33.594;-117.718;2023-07-31T10:50:38;99906.44;;;20.44;100.00
16525;BME280;8375;33.594;-117.718;2023-07-31T10:53:22;99903.19;;;20.42;100.00
16525;BME280;8375;33.594;-117.718;2023-07-31T10:55:52;99906.03;;;20.40;100.00
16525;BME280;8375;33.594;-117.718;2023-07-31T10:58:21;99896.28;;;20.41;100.00
16525;BME280;8375;33.594;-117.718;2023-07-31T11:00:51;99894.66;;;20.40;100.00
16525;BME280;8375;33.594;-117.718;2023-07-31T11:03:25;99898.69;;;20.35;100.00
16525;BME280;8375;33.594;-117.718;2023-07-31T11:06:00;99895.66;;;20.38;100.00
16525;BME280;8375;33.594;-117.718;2023-07-31T11:08:30;99898.69;;;20.35;100.00
16525;BME280;8375;33.594;-117.718;2023-07-31T11:11:07;99907.59;;;20.34;100.00
16525;BME280;8375;33.594;-117.718;2023-07-31T11:13:41;99905.78;;;20.35;100.00
16525;BME280;8375;33.594;-117.718;2023-07-31T11:16:12;99909.22;;;20.35;100.00
16525;BME280;8375;33.594;-117.718;2023-07-31T11:18:41;99918.75;;;20.36;100.00
16525;BME280;8375;33.594;-117.718;2023-07-31T11:21:14;99926.03;;;20.34;100.00
16525;BME280;8375;33.594;-117.718;2023-07-31T11:23:48;99936.53;;;20.28;100.00
16525;BME280;8375;33.594;-117.718;2023-07-31T11:26:17;99934.81;;;20.20;100.00
16525;BME280;8375;33.594;-117.718;2023-07-31T11:28:47;99943.09;;;20.17;100.00
16525;BME280;8375;33.594;-117.718;2023-07-31T11:31:17;99931.31;;;20.13;100.00
16525;BME280;8375;33.594;-117.718;2023-07-31T11:33:46;99940.59;;;20.08;100.00
16525;BME280;8375;33.594;-117.718;2023-07-31T11:36:20;99937.59;;;20.12;100.00
16525;BME280;8375;33.594;-117.718;2023-07-31T11:38:48;99948.75;;;20.14;100.00
16525;BME280;8375;33.594;-117.718;2023-07-31T11:41:17;99955.47;;;20.16;100.00
16525;BME280;8375;33.594;-117.718;2023-07-31T11:43:46;99962.19;;;20.19;100.00
16525;BME280;8375;33.594;-117.718;2023-07-31T11:46:15;99968.28;;;20.19;100.00
16525;BME280;8375;33.594;-117.718;2023-07-31T11:48:44;99962.19;;;20.19;100.00
16525;BME280;8375;33.594;-117.718;2023-07-31T11:51:14;99967.44;;;20.19;100.00
16525;BME280;8375;33.594;-117.718;2023-07-31T11:53:47;99971.72;;;20.20;100.00
16525;BME280;8375;33.594;-117.718;2023-07-31T11:56:17;99992.00;;;20.19;100.00
16525;BME280;8375;33.594;-117.718;2023-07-31T11:58:47;99992.81;;;20.20;100.00
16525;BME280;8375;33.594;-117.718;2023-07-31T12:01:19;100014.50;;;20.22;100.00
16525;BME280;8375;33.594;-117.718;2023-07-31T12:03:49;100022.88;;;20.26;100.00
16525;BME280;8375;33.594;-117.718;2023-07-31T12:06:18;100043.97;;;20.11;100.00
16525;BME280;8375;33.594;-117.718;2023-07-31T12:08:49;100047.72;;;20.01;100.00
16525;BME280;8375;33.594;-117.718;2023-07-31T12:11:17;100059.09;;;20.02;100.00
16525;BME280;8375;33.594;-117.718;2023-07-31T12:13:46;100051.63;;;20.05;100.00
16525;BME280;8375;33.594;-117.718;2023-07-31T12:16:15;100040.72;;;20.08;100.00
16525;BME280;8375;33.594;-117.718;2023-07-31T12:18:43;100044.59;;;20.13;100.00
16525;BME280;8375;33.594;-117.718;2023-07-31T12:21:12;100039.59;;;20.18;100.00
16525;BME280;8375;33.594;-117.718;2023-07-31T12:23:43;100037.97;;;20.17;100.00
16525;BME280;8375;33.594;-117.718;2023-07-31T12:26:14;100035.41;;;20.23;100.00
16525;BME280;8375;33.594;-117.718;2023-07-31T12:28:44;100037.22;;;20.23;100.00
16525;BME280;8375;33.594;-117.718;2023-07-31T12:31:14;100031.16;;;20.22;100.00
16525;BME280;8375;33.594;-117.718;2023-07-31T12:33:44;100033.31;;;20.19;100.00
16525;BME280;8375;33.594;-117.718;2023-07-31T12:36:14;100039.22;;;20.21;100.00
16525;BME280;8375;33.594;-117.718;2023-07-31T12:38:44;100045.88;;;20.17;100.00
16525;BME280;8375;33.594;-117.718;2023-07-31T12:41:15;100039.97;;;20.15;100.00
16525;BME280;8375;33.594;-117.718;2023-07-31T12:43:45;100028.63;;;20.14;100.00
16525;BME280;8375;33.594;-117.718;2023-07-31T12:46:13;100021.72;;;20.13;100.00
16525;BME280;8375;33.594;-117.718;2023-07-31T12:48:43;100019.72;;;20.15;100.00
16525;BME280;8375;33.594;-117.718;2023-07-31T12:51:12;100021.91;;;20.12;100.00